Share

Point Salines, Grenada

8:23 AM AST on April 23, 2014 (GMT -0400)
Point Salines International (TGPY) Elev 23 ft | 12.00 °N, 61.79 °W | Change Station

Current weather conditions updated 23 minutes ago

Partly Cloudy
Partly Cloudy
81 °F
Feels Like 86 °F
N
16
Wind Variable Wind from ESE
Sunrise 5:51 AM
Sunset 6:19 PM
Moon Last Quarter

Today is forecast to be nearly the same temperature as yesterday.

Pressure 29.95 in
Visibility 6.2 miles
Clouds Few 1800 ft
Heat Index 86 °F
Dew Point 75 °F
Humidity 84%
Rainfall 0.00 in
Snow Depth Not available.
UV 4 out of 16
Pollen Not available.
Air Quality Not available.
Flu Activity Not available.
METAR TGPY 231200Z 12014KT 9999 FEW018 27/24 Q1014 NOSIG

More Conditions Fewer Conditions

Pressure 29.95 in
Visibility 6.2 miles
Clouds Few 1800 ft
Heat Index 86 °F
Dew Point 75 °F
Humidity 84%
Rainfall 0.00 in
Snow Depth Not available.
UV 4 out of 16
Pollen Not available.
Air Quality Not available.
Flu Activity Not available.
METAR TGPY 231200Z 12014KT 9999 FEW018 27/24 Q1014 NOSIG

More Conditions Fewer Conditions

10-Day Weather Forecast

Almanac

Astronomy

Apr. 23, 2014 Rise Set
Actual Time 5:51 AM AST 6:19 PM AST
Civil Twilight 5:29 AM AST 6:41 PM AST
Nautical Twilight 5:03 AM AST 7:07 PM AST
Astronomical Twilight 4:38 AM AST 7:32 PM AST
Moon 1:15 AM AST 1:22 PM AST
Length of Visible Light 13h 12m
Length of Day
12h 28m
Tomorrow will be 0m 36s longer.
Last Quarter, 37% of the Moon is Illuminated
Today
Last Quarter
Apr 29
New
May 6
First Quarter
May 14
Full
May 21
Last Quarter

Yesterday's Extremes

Country Highs Country Lows

Community

  • April Sunset
    April Sunset
  • Waiting..
    Waiting..
  • Sunset...
    Sunset...
  • Happy outdoor day
    Happy outdoor day
  • mystic afternoon....
    mystic afternoon....

WunderPhotos

Upload Photos

1,704,256 photos uploaded!

Nearby

Snow Depth

Not available.

Coastal Water Temperatures

Place Temperature
No Stations Reporting

Earthquake Activity

City Distance Mag. Time & Date
No recent earthquake activity has been reported nearby.
Minimum magnitude displayed is 2.5.

Nearby Weather Stations

Station Location Temp. Heat Index Dew Point Humidity Wind Precip. Elev Updated Type
Lance Aux Epines 80.1 °F 85 °F 74 °F 83% ENE  at  31.0 mph 0.00 in / hr 20 ft 8:17 AM AST Normal

Show More Stations Show Fewer Stations

What do you think?

We're not finished. Please let us know what you like, what you don't like, and what you are still missing.